createdAt,value
2019-03-06T00:05:34.481Z,5.70
2019-03-06T00:11:08.393Z,5.20
2019-03-06T00:13:36.894Z,5.77
2019-03-06T00:19:33.568Z,5.53
2019-03-06T00:22:01.926Z,5.50
2019-03-06T00:24:30.386Z,6.23
2019-03-06T00:26:58.901Z,5.70
2019-03-06T00:29:27.166Z,6.07
2019-03-06T00:31:56.071Z,5.50
2019-03-06T00:37:41.314Z,6.30
2019-03-06T00:43:26.003Z,4.27
2019-03-06T00:45:54.234Z,5.17
2019-03-06T00:51:50.965Z,5.63
2019-03-06T00:54:19.297Z,4.50
2019-03-06T01:00:19.113Z,3.53
2019-03-06T01:06:03.489Z,6.23
2019-03-06T01:08:31.898Z,5.77
2019-03-06T01:11:00.250Z,5.90
2019-03-06T01:13:28.502Z,6.10
2019-03-06T01:15:56.912Z,5.07
2019-03-06T01:18:25.272Z,6.80
2019-03-06T01:24:09.022Z,6.43
2019-03-06T01:29:41.989Z,6.93
2019-03-06T01:32:10.226Z,7.77
2019-03-06T01:37:57.126Z,7.07
2019-03-06T01:40:27.053Z,5.60
2019-03-06T01:42:57.069Z,7.73
2019-03-06T01:48:42.686Z,5.80
2019-03-06T01:54:26.974Z,7.43
2019-03-06T01:56:55.325Z,6.90
2019-03-06T01:59:24.683Z,6.23
2019-03-06T02:01:54.235Z,9.30
2019-03-06T02:04:22.522Z,7.17
2019-03-06T02:10:07.750Z,6.17
2019-03-06T02:12:36.153Z,5.80
2019-03-06T02:15:05.998Z,9.33
2019-03-06T02:17:34.626Z,8.73
2019-03-06T02:20:03.073Z,6.53
2019-03-06T02:22:32.388Z,8.77
2019-03-06T02:25:01.840Z,4.60
2019-03-06T02:27:30.173Z,9.63
2019-03-06T02:29:58.863Z,7.97
2019-03-06T02:32:27.128Z,9.27
2019-03-06T02:34:55.443Z,6.03
2019-03-06T02:37:23.841Z,6.90
2019-03-06T02:39:52.118Z,8.87
2019-03-06T02:42:20.374Z,7.00
2019-03-06T02:44:48.606Z,8.00
2019-03-06T02:47:16.863Z,8.20
2019-03-06T02:49:46.350Z,10.13
2019-03-06T02:55:31.798Z,8.37
2019-03-06T02:58:01.671Z,9.87
2019-03-06T03:00:32.686Z,9.97
2019-03-06T03:03:02.523Z,8.20
2019-03-06T03:08:46.583Z,7.17
2019-03-06T03:11:14.909Z,10.97
2019-03-06T03:13:43.096Z,7.23
2019-03-06T03:16:11.392Z,6.87
2019-03-06T03:21:55.195Z,7.57
2019-03-06T03:27:40.026Z,9.47
2019-03-06T03:30:09.727Z,10.80
2019-03-06T03:32:38.010Z,7.90
2019-03-06T03:38:21.814Z,8.77
2019-03-06T03:44:06.834Z,11.17
2019-03-06T03:49:51.063Z,7.23
2019-03-06T03:55:34.666Z,6.33
2019-03-06T04:01:18.952Z,5.77
2019-03-06T04:03:47.330Z,8.00
2019-03-06T04:06:16.003Z,10.40
2019-03-06T04:12:01.037Z,7.83
2019-03-06T04:14:31.436Z,6.10
2019-03-06T04:16:59.722Z,6.13
2019-03-06T04:19:28.102Z,9.50
2019-03-06T04:25:24.166Z,10.77
2019-03-06T04:30:57.266Z,6.63
2019-03-06T04:36:41.214Z,7.10
2019-03-06T04:39:09.774Z,4.93
2019-03-06T04:44:55.429Z,6.43
2019-03-06T04:50:41.824Z,6.60
2019-03-06T04:53:10.085Z,7.93
2019-03-06T04:55:38.601Z,6.83
2019-03-06T05:01:23.462Z,9.17
2019-03-06T05:07:08.293Z,5.83
2019-03-06T05:09:37.061Z,7.63
2019-03-06T05:12:05.334Z,9.17
2019-03-06T05:17:39.606Z,5.73
2019-03-06T05:23:23.433Z,7.00
2019-03-06T05:28:56.761Z,8.33
2019-03-06T05:34:29.346Z,7.57
2019-03-06T05:36:59.174Z,6.77
2019-03-06T05:42:31.964Z,8.70
2019-03-06T05:45:00.354Z,8.80
2019-03-06T05:47:28.745Z,9.17
2019-03-06T05:53:12.563Z,6.97
2019-03-06T05:58:57.061Z,8.70
2019-03-06T06:04:41.734Z,9.23
2019-03-06T06:10:26.285Z,9.70
2019-03-06T06:12:54.547Z,7.63
2019-03-06T06:15:22.899Z,10.73
2019-03-06T06:17:51.362Z,8.60
2019-03-06T06:20:19.741Z,9.23
2019-03-06T06:26:04.242Z,10.00
2019-03-06T06:28:32.566Z,8.70
2019-03-06T06:31:00.878Z,5.33
2019-03-06T06:33:29.384Z,9.87
2019-03-06T06:39:01.460Z,9.33
2019-03-06T06:44:59.990Z,8.47
2019-03-06T06:50:46.176Z,7.97
2019-03-06T06:53:16.043Z,8.23
2019-03-06T06:55:45.983Z,10.07
2019-03-06T06:58:15.656Z,9.30
2019-03-06T07:00:47.114Z,11.63
2019-03-06T07:03:18.519Z,9.43
2019-03-06T07:05:48.649Z,11.10
2019-03-06T07:08:18.633Z,10.57
2019-03-06T07:10:50.015Z,10.17
2019-03-06T07:13:20.033Z,11.87
2019-03-06T07:15:50.035Z,9.67
2019-03-06T07:18:18.120Z,8.60
2019-03-06T07:20:48.276Z,37.37
2019-03-06T07:23:18.290Z,18.40
2019-03-06T07:25:48.682Z,13.83
2019-03-06T07:28:18.849Z,11.73
2019-03-06T07:30:50.254Z,9.60
2019-03-06T07:33:20.214Z,10.53
2019-03-06T07:35:51.712Z,10.00
2019-03-06T07:38:20.543Z,13.70
2019-03-06T07:40:50.430Z,11.37
2019-03-06T07:43:20.393Z,7.00
2019-03-06T07:45:50.366Z,11.20
2019-03-06T07:48:20.335Z,8.73
2019-03-06T07:50:50.374Z,12.67
2019-03-06T07:53:21.866Z,12.50
2019-03-06T07:55:51.777Z,16.63
2019-03-06T07:58:21.749Z,13.67
2019-03-06T08:00:50.523Z,12.30
2019-03-06T08:06:12.482Z,11.40
2019-03-06T08:08:41.340Z,18.57
2019-03-06T08:11:10.843Z,10.60
2019-03-06T08:13:41.882Z,15.83
2019-03-06T08:16:11.893Z,12.50
2019-03-06T08:18:41.878Z,13.60
2019-03-06T08:21:11.924Z,15.50
2019-03-06T08:23:41.855Z,14.67
2019-03-06T08:29:27.342Z,13.83
2019-03-06T08:35:11.590Z,12.73
2019-03-06T08:37:39.984Z,10.73
2019-03-06T08:40:09.870Z,16.47
2019-03-06T08:42:38.394Z,13.27
2019-03-06T08:45:08.387Z,9.33
2019-03-06T08:47:38.376Z,12.43
2019-03-06T08:50:08.766Z,14.27
2019-03-06T08:52:39.929Z,10.30
2019-03-06T08:55:11.138Z,10.03
2019-03-06T08:57:41.206Z,10.27
2019-03-06T09:00:13.955Z,10.57
2019-03-06T09:02:44.240Z,13.80
2019-03-06T09:05:14.164Z,9.40
2019-03-06T09:07:44.174Z,12.10
2019-03-06T09:10:12.453Z,13.73
2019-03-06T09:12:42.430Z,12.57
2019-03-06T09:15:14.252Z,14.67
2019-03-06T09:17:44.129Z,11.37
2019-03-06T09:20:14.182Z,12.37
2019-03-06T09:22:44.037Z,14.07
2019-03-06T09:25:14.411Z,11.90
2019-03-06T09:27:44.410Z,9.83
2019-03-06T09:30:16.258Z,10.33
2019-03-06T09:32:46.327Z,10.23
2019-03-06T09:35:16.430Z,13.13
2019-03-06T09:37:46.562Z,16.17
2019-03-06T09:40:16.776Z,15.07
2019-03-06T09:42:46.792Z,14.47
2019-03-06T09:45:16.825Z,15.27
2019-03-06T09:47:47.133Z,14.90
2019-03-06T09:50:17.019Z,14.87
2019-03-06T09:52:47.010Z,12.53
2019-03-06T09:55:16.927Z,13.40
2019-03-06T09:57:46.892Z,13.57
2019-03-06T10:00:25.741Z,11.70
2019-03-06T10:02:55.673Z,14.90
2019-03-06T10:05:25.781Z,17.27
2019-03-06T10:07:55.793Z,11.80
2019-03-06T10:10:25.727Z,13.17
2019-03-06T10:12:55.733Z,14.20
2019-03-06T10:15:25.739Z,14.77
2019-03-06T10:17:55.761Z,13.03
2019-03-06T10:20:25.607Z,11.93
2019-03-06T10:22:54.894Z,11.63
2019-03-06T10:25:30.109Z,15.20
2019-03-06T10:27:54.433Z,14.00
2019-03-06T10:30:22.868Z,13.77
2019-03-06T10:32:52.062Z,12.37
2019-03-06T10:35:20.396Z,12.07
2019-03-06T10:37:49.102Z,10.77
2019-03-06T10:40:18.196Z,10.63
2019-03-06T10:42:46.648Z,14.80
2019-03-06T10:45:16.721Z,12.60
2019-03-06T10:47:45.487Z,11.70
2019-03-06T10:50:26.030Z,11.37
2019-03-06T10:52:47.098Z,12.97
2019-03-06T10:55:17.021Z,12.57
2019-03-06T10:57:45.687Z,12.20
2019-03-06T11:00:16.947Z,8.67
2019-03-06T11:02:45.545Z,10.13
2019-03-06T11:05:17.281Z,9.07
2019-03-06T11:07:46.402Z,10.93
2019-03-06T11:10:23.502Z,11.03
2019-03-06T11:12:45.255Z,9.73
2019-03-06T11:15:15.198Z,9.20
2019-03-06T11:17:45.167Z,9.63
2019-03-06T11:20:15.196Z,11.70
2019-03-06T11:22:43.526Z,9.50
2019-03-06T11:25:13.435Z,10.03
2019-03-06T11:27:41.886Z,8.57
2019-03-06T11:30:12.185Z,9.50
2019-03-06T11:32:40.646Z,7.03
2019-03-06T11:35:10.513Z,8.53
2019-03-06T11:37:38.789Z,7.87
2019-03-06T11:40:08.634Z,9.93
2019-03-06T11:42:37.088Z,10.23
2019-03-06T11:45:07.996Z,9.17
2019-03-06T11:50:41.219Z,9.27
2019-03-06T11:56:25.204Z,9.20
2019-03-06T12:02:10.691Z,7.30
2019-03-06T14:19:31.947Z,9.60
2019-03-06T14:22:01.085Z,7.77
2019-03-06T14:24:30.174Z,4.53
2019-03-06T14:26:58.450Z,4.17
2019-03-06T14:29:26.833Z,4.27
2019-03-06T14:31:55.268Z,4.43
2019-03-06T14:34:23.767Z,4.23
2019-03-06T14:36:52.113Z,5.80
2019-03-06T14:39:21.673Z,4.70
2019-03-06T14:41:50.051Z,3.33
2019-03-06T14:44:18.481Z,3.60
2019-03-06T14:46:47.111Z,4.73
2019-03-06T14:49:15.507Z,5.10
2019-03-06T14:51:43.726Z,5.00
2019-03-06T14:54:12.382Z,4.67
2019-03-06T14:56:40.814Z,5.27
2019-03-06T14:59:09.170Z,4.10
2019-03-06T15:01:37.782Z,6.63
2019-03-06T15:04:06.153Z,4.70
2019-03-06T15:06:34.703Z,5.63
2019-03-06T15:09:04.821Z,6.30
2019-03-06T15:11:34.922Z,4.83
2019-03-06T15:14:03.328Z,4.80
2019-03-06T15:16:31.772Z,5.70
2019-03-06T15:19:00.168Z,5.37
2019-03-06T15:21:28.471Z,5.00
2019-03-06T15:23:56.927Z,7.03
2019-03-06T15:26:26.498Z,5.50
2019-03-06T15:28:54.921Z,5.17
2019-03-06T15:31:23.307Z,5.33
2019-03-06T15:33:51.694Z,5.47
2019-03-06T15:36:20.112Z,4.63
2019-03-06T15:38:48.935Z,4.70
2019-03-06T15:41:17.183Z,5.60
2019-03-06T15:43:45.420Z,4.90
2019-03-06T15:46:13.753Z,5.03
2019-03-06T15:48:42.164Z,5.50
2019-03-06T15:51:10.641Z,7.40
2019-03-06T15:53:39.237Z,4.90
2019-03-06T15:56:07.468Z,6.27
2019-03-06T15:58:36.494Z,9.70
2019-03-06T16:01:04.862Z,15.10
2019-03-06T16:03:33.134Z,13.87
2019-03-06T16:06:01.581Z,17.20
2019-03-06T16:08:30.283Z,14.70
2019-03-06T16:10:58.702Z,7.73
2019-03-06T16:13:28.702Z,7.43
2019-03-06T16:15:57.047Z,8.93
2019-03-06T16:18:25.421Z,16.23
2019-03-06T16:20:53.668Z,14.90
2019-03-06T16:23:22.080Z,15.70
2019-03-06T16:25:50.359Z,14.13
2019-03-06T16:28:18.791Z,13.53
2019-03-06T16:30:47.493Z,12.37
2019-03-06T16:33:16.042Z,13.83
2019-03-06T16:35:44.503Z,12.40
2019-03-06T16:38:14.802Z,10.13
2019-03-06T16:40:43.142Z,9.60
2019-03-06T16:43:11.555Z,8.90
2019-03-06T16:45:39.737Z,9.50
2019-03-06T16:48:08.160Z,10.50
2019-03-06T16:50:36.557Z,8.40
2019-03-06T16:53:05.252Z,9.17
2019-03-06T16:55:34.951Z,8.17
2019-03-06T16:58:03.491Z,6.47
2019-03-06T17:00:32.730Z,8.27
2019-03-06T17:03:02.594Z,11.73
2019-03-06T17:05:31.467Z,12.53
2019-03-06T17:08:00.020Z,9.30
2019-03-06T17:10:29.943Z,11.07
2019-03-06T17:12:58.789Z,10.63
2019-03-06T17:15:29.571Z,12.97
2019-03-06T17:17:58.163Z,12.80
2019-03-06T17:20:28.006Z,15.40
2019-03-06T17:22:56.647Z,15.53
2019-03-06T17:25:28.061Z,17.17
2019-03-06T17:27:55.140Z,21.40
2019-03-06T17:30:25.068Z,14.70
2019-03-06T17:32:54.946Z,16.67
2019-03-06T17:35:24.082Z,15.90
2019-03-06T17:37:52.506Z,14.70
2019-03-06T17:40:20.844Z,17.50
2019-03-06T17:42:49.314Z,18.77
2019-03-06T17:45:20.102Z,17.13
2019-03-06T17:47:47.924Z,17.10
2019-03-06T17:50:17.109Z,21.40
2019-03-06T17:52:45.602Z,17.00
2019-03-06T17:55:14.587Z,19.53
2019-03-06T17:57:42.962Z,17.57
2019-03-06T18:00:16.957Z,17.27
2019-03-06T18:02:43.364Z,18.47
2019-03-06T18:05:12.071Z,18.07
2019-03-06T18:07:47.526Z,14.93
2019-03-06T18:10:17.924Z,15.30
2019-03-06T18:12:46.454Z,20.60
2019-03-06T18:15:15.649Z,15.33
2019-03-06T18:17:44.248Z,14.20
2019-03-06T18:20:13.849Z,17.87
2019-03-06T18:22:42.274Z,16.13
2019-03-06T18:25:12.068Z,16.73
2019-03-06T18:27:40.546Z,18.70
2019-03-06T18:30:10.446Z,17.37
2019-03-06T18:32:38.922Z,17.13
2019-03-06T18:35:08.307Z,19.63
2019-03-06T18:37:36.586Z,19.77
2019-03-06T18:40:06.375Z,18.63
2019-03-06T18:42:34.889Z,20.03
2019-03-06T18:45:04.734Z,19.40
2019-03-06T18:47:34.747Z,20.43
2019-03-06T18:50:03.576Z,25.77
2019-03-06T18:52:32.002Z,21.43
2019-03-06T18:55:01.428Z,20.57
2019-03-06T18:57:31.432Z,20.50
2019-03-06T18:59:59.745Z,26.60
2019-03-06T19:02:28.174Z,22.93
2019-03-06T19:04:56.532Z,23.23
2019-03-06T19:07:24.994Z,19.87
2019-03-06T19:09:53.349Z,24.43
2019-03-06T19:12:21.793Z,23.83
2019-03-06T19:14:50.039Z,21.20
2019-03-06T19:17:20.163Z,20.13
2019-03-06T19:19:48.286Z,20.53
2019-03-06T19:22:16.674Z,20.90
2019-03-06T19:24:45.075Z,22.40
2019-03-06T19:27:13.429Z,20.00
2019-03-06T19:29:41.678Z,25.87
2019-03-06T19:32:10.190Z,22.43
2019-03-06T19:34:39.092Z,27.07
2019-03-06T19:37:07.538Z,18.87
2019-03-06T19:42:40.880Z,20.83
2019-03-06T19:48:25.095Z,18.47
2019-03-06T19:50:54.674Z,19.77
2019-03-06T19:56:39.763Z,19.33
2019-03-06T20:02:23.653Z,19.03
2019-03-06T20:08:11.388Z,19.37
2019-03-06T20:13:55.486Z,19.37
2019-03-06T20:16:23.963Z,24.10
2019-03-06T20:18:52.427Z,17.17
2019-03-06T20:21:20.964Z,20.03
2019-03-06T20:23:49.314Z,19.60
2019-03-06T20:26:17.777Z,21.53
2019-03-06T20:28:47.477Z,17.97
2019-03-06T20:31:15.819Z,17.30
2019-03-06T20:37:00.711Z,17.23
2019-03-06T20:42:45.579Z,15.63
2019-03-06T20:45:14.486Z,18.97
2019-03-06T20:50:59.667Z,15.97
2019-03-06T20:53:28.179Z,18.20
2019-03-06T20:59:25.692Z,15.03
2019-03-06T21:05:09.785Z,18.13
2019-03-06T21:07:44.887Z,16.03
2019-03-06T21:10:09.707Z,16.03
2019-03-06T21:12:38.024Z,20.07
2019-03-06T21:18:22.221Z,17.80
2019-03-06T21:23:55.091Z,16.47
2019-03-06T21:26:23.444Z,20.60
2019-03-06T21:32:08.563Z,17.60
2019-03-06T21:37:52.586Z,15.90
2019-03-06T21:40:20.832Z,15.07
2019-03-06T21:42:50.518Z,16.33
2019-03-06T21:48:34.847Z,17.30
2019-03-06T21:54:18.764Z,15.27
2019-03-06T21:56:47.242Z,17.13
2019-03-06T21:59:15.621Z,15.37
2019-03-06T22:01:44.128Z,17.23
2019-03-06T22:04:12.541Z,18.00
2019-03-06T22:09:56.773Z,16.00
2019-03-06T22:12:25.137Z,13.97
2019-03-06T22:18:21.709Z,16.57
2019-03-06T22:20:49.999Z,16.57
2019-03-06T22:23:19.285Z,16.13
2019-03-06T22:25:47.766Z,17.37
2019-03-06T22:28:16.141Z,16.40
2019-03-06T22:34:00.566Z,15.93
2019-03-06T22:39:46.369Z,12.13
2019-03-06T22:45:30.733Z,12.83
2019-03-06T22:47:59.306Z,15.50
2019-03-06T22:53:31.899Z,17.50
2019-03-06T22:59:18.054Z,10.40
2019-03-06T23:05:02.541Z,13.03
2019-03-06T23:10:47.771Z,16.80
2019-03-06T23:13:16.170Z,17.97
2019-03-06T23:15:44.613Z,14.63
2019-03-06T23:21:17.766Z,16.57
2019-03-06T23:23:46.128Z,11.60
2019-03-06T23:29:31.646Z,17.00
2019-03-06T23:35:15.573Z,18.87
2019-03-06T23:41:00.288Z,12.97
2019-03-06T23:46:45.257Z,15.20
2019-03-06T23:52:30.782Z,14.60
2019-03-06T23:54:59.110Z,15.03
2019-03-06T23:57:27.642Z,9.87
